sensor_id;sensor_type;location;lat;lon;timestamp;temperature;humidity
3614;DHT22;1821;50.936;6.854;2023-07-31T00:00:29;17.00;99.90
3614;DHT22;1821;50.936;6.854;2023-07-31T00:01:11;17.00;99.90
3614;DHT22;1821;50.936;6.854;2023-07-31T00:01:53;17.00;99.90
3614;DHT22;1821;50.936;6.854;2023-07-31T00:02:35;17.00;99.90
3614;DHT22;1821;50.936;6.854;2023-07-31T00:03:17;17.10;99.90
3614;DHT22;1821;50.936;6.854;2023-07-31T00:03:59;17.00;99.90
3614;DHT22;1821;50.936;6.854;2023-07-31T00:04:41;17.10;99.90
3614;DHT22;1821;50.936;6.854;2023-07-31T00:05:23;17.20;99.90
3614;DHT22;1821;50.936;6.854;2023-07-31T00:06:05;17.10;99.90
3614;DHT22;1821;50.936;6.854;2023-07-31T00:06:47;17.10;99.90
3614;DHT22;1821;50.936;6.854;2023-07-31T00:07:29;17.10;99.90
3614;DHT22;1821;50.936;6.854;2023-07-31T00:08:11;17.00;99.90
3614;DHT22;1821;50.936;6.854;2023-07-31T00:08:53;17.10;99.90
3614;DHT22;1821;50.936;6.854;2023-07-31T00:09:36;17.10;99.90
3614;DHT22;1821;50.936;6.854;2023-07-31T00:10:18;17.20;99.90
3614;DHT22;1821;50.936;6.854;2023-07-31T00:11:02;17.20;99.90
3614;DHT22;1821;50.936;6.854;2023-07-31T00:11:46;17.10;99.90
3614;DHT22;1821;50.936;6.854;2023-07-31T00:12:28;17.00;99.90
3614;DHT22;1821;50.936;6.854;2023-07-31T00:13:11;17.10;99.90
3614;DHT22;1821;50.936;6.854;2023-07-31T00:13:54;17.10;99.90
3614;DHT22;1821;50.936;6.854;2023-07-31T00:14:35;17.10;99.90
3614;DHT22;1821;50.936;6.854;2023-07-31T00:15:17;17.00;99.90
3614;DHT22;1821;50.936;6.854;2023-07-31T00:16:01;17.10;99.90
3614;DHT22;1821;50.936;6.854;2023-07-31T00:16:43;17.20;99.90
3614;DHT22;1821;50.936;6.854;2023-07-31T00:17:26;17.20;99.90
3614;DHT22;1821;50.936;6.854;2023-07-31T00:18:07;17.20;99.90
3614;DHT22;1821;50.936;6.854;2023-07-31T00:18:49;17.10;99.90
3614;DHT22;1821;50.936;6.854;2023-07-31T00:19:33;17.00;99.90
3614;DHT22;1821;50.936;6.854;2023-07-31T00:20:16;17.10;99.90
3614;DHT22;1821;50.936;6.854;2023-07-31T00:20:58;17.10;99.90
3614;DHT22;1821;50.936;6.854;2023-07-31T00:21:43;17.00;99.90
3614;DHT22;1821;50.936;6.854;2023-07-31T00:22:27;17.00;99.90
3614;DHT22;1821;50.936;6.854;2023-07-31T00:23:11;17.10;99.90
3614;DHT22;1821;50.936;6.854;2023-07-31T00:23:53;17.10;99.90
3614;DHT22;1821;50.936;6.854;2023-07-31T00:24:35;17.00;99.90
3614;DHT22;1821;50.936;6.854;2023-07-31T00:25:17;17.10;99.90
3614;DHT22;1821;50.936;6.854;2023-07-31T00:25:59;17.10;99.90
3614;DHT22;1821;50.936;6.854;2023-07-31T00:26:41;17.10;99.90
3614;DHT22;1821;50.936;6.854;2023-07-31T00:27:23;17.00;99.90
3614;DHT22;1821;50.936;6.854;2023-07-31T00:28:05;17.00;99.90
3614;DHT22;1821;50.936;6.854;2023-07-31T00:28:47;17.10;99.90
3614;DHT22;1821;50.936;6.854;2023-07-31T00:29:29;17.10;99.90
3614;DHT22;1821;50.936;6.854;2023-07-31T00:30:11;17.10;99.90
3614;DHT22;1821;50.936;6.854;2023-07-31T00:30:53;17.10;99.90
3614;DHT22;1821;50.936;6.854;2023-07-31T00:31:36;17.20;99.90
3614;DHT22;1821;50.936;6.854;2023-07-31T00:32:18;17.10;99.90
3614;DHT22;1821;50.936;6.854;2023-07-31T00:33:02;17.10;99.90
3614;DHT22;1821;50.936;6.854;2023-07-31T00:33:44;17.10;99.90
3614;DHT22;1821;50.936;6.854;2023-07-31T00:34:26;17.10;99.90
3614;DHT22;1821;50.936;6.854;2023-07-31T00:35:08;17.10;99.90
3614;DHT22;1821;50.936;6.854;2023-07-31T00:35:50;17.20;99.90
3614;DHT22;1821;50.936;6.854;2023-07-31T00:36:32;17.20;99.90
3614;DHT22;1821;50.936;6.854;2023-07-31T00:37:14;17.20;99.90
3614;DHT22;1821;50.936;6.854;2023-07-31T00:37:58;17.20;99.90
3614;DHT22;1821;50.936;6.854;2023-07-31T00:38:40;17.20;99.90
3614;DHT22;1821;50.936;6.854;2023-07-31T00:39:21;17.30;99.90
3614;DHT22;1821;50.936;6.854;2023-07-31T00:40:04;17.30;99.90
3614;DHT22;1821;50.936;6.854;2023-07-31T00:40:46;17.20;99.90
3614;DHT22;1821;50.936;6.854;2023-07-31T00:41:28;17.10;99.90
3614;DHT22;1821;50.936;6.854;2023-07-31T00:42:10;17.20;99.90
3614;DHT22;1821;50.936;6.854;2023-07-31T00:42:51;17.20;99.90
3614;DHT22;1821;50.936;6.854;2023-07-31T00:43:33;17.30;99.90
3614;DHT22;1821;50.936;6.854;2023-07-31T00:44:16;17.10;99.90
3614;DHT22;1821;50.936;6.854;2023-07-31T00:44:57;17.20;99.90
3614;DHT22;1821;50.936;6.854;2023-07-31T00:45:42;17.20;99.90
3614;DHT22;1821;50.936;6.854;2023-07-31T00:46:24;17.30;99.90
3614;DHT22;1821;50.936;6.854;2023-07-31T00:47:06;17.20;99.90
3614;DHT22;1821;50.936;6.854;2023-07-31T00:47:48;17.20;99.90
3614;DHT22;1821;50.936;6.854;2023-07-31T00:48:32;17.30;99.90
3614;DHT22;1821;50.936;6.854;2023-07-31T00:49:15;17.20;90.20
3614;DHT22;1821;50.936;6.854;2023-07-31T00:49:57;17.20;99.90
3614;DHT22;1821;50.936;6.854;2023-07-31T00:50:42;17.10;99.90
3614;DHT22;1821;50.936;6.854;2023-07-31T00:51:25;17.20;99.90
3614;DHT22;1821;50.936;6.854;2023-07-31T00:52:08;17.00;99.90
3614;DHT22;1821;50.936;6.854;2023-07-31T00:52:51;17.20;96.20
3614;DHT22;1821;50.936;6.854;2023-07-31T00:53:34;17.30;99.90
3614;DHT22;1821;50.936;6.854;2023-07-31T00:54:16;17.20;91.10
3614;DHT22;1821;50.936;6.854;2023-07-31T00:54:59;17.20;95.10
3614;DHT22;1821;50.936;6.854;2023-07-31T00:55:42;17.20;36.80
3614;DHT22;1821;50.936;6.854;2023-07-31T00:56:24;17.30;99.90
3614;DHT22;1821;50.936;6.854;2023-07-31T00:57:07;17.20;99.90
3614;DHT22;1821;50.936;6.854;2023-07-31T00:57:50;17.20;83.90
3614;DHT22;1821;50.936;6.854;2023-07-31T00:58:34;17.20;99.90
3614;DHT22;1821;50.936;6.854;2023-07-31T00:59:19;17.20;65.90
3614;DHT22;1821;50.936;6.854;2023-07-31T01:00:01;17.30;31.80
3614;DHT22;1821;50.936;6.854;2023-07-31T01:00:43;17.20;65.80
3614;DHT22;1821;50.936;6.854;2023-07-31T01:01:25;17.20;29.30
3614;DHT22;1821;50.936;6.854;2023-07-31T01:02:07;17.20;99.90
3614;DHT22;1821;50.936;6.854;2023-07-31T01:02:52;17.20;99.90
3614;DHT22;1821;50.936;6.854;2023-07-31T01:03:34;17.30;99.90
3614;DHT22;1821;50.936;6.854;2023-07-31T01:04:19;17.30;99.90
3614;DHT22;1821;50.936;6.854;2023-07-31T01:05:02;16.90;99.90
3614;DHT22;1821;50.936;6.854;2023-07-31T01:07:49;17.20;23.60
3614;DHT22;1821;50.936;6.854;2023-07-31T01:10:17;17.20;13.70
3614;DHT22;1821;50.936;6.854;2023-07-31T01:11:26;17.20;1.00
3614;DHT22;1821;50.936;6.854;2023-07-31T01:12:13;17.30;15.80
3614;DHT22;1821;50.936;6.854;2023-07-31T01:12:56;17.20;1.00
3614;DHT22;1821;50.936;6.854;2023-07-31T01:13:39;17.30;46.00
3614;DHT22;1821;50.936;6.854;2023-07-31T01:14:21;17.20;99.90
3614;DHT22;1821;50.936;6.854;2023-07-31T01:15:04;17.20;99.90
3614;DHT22;1821;50.936;6.854;2023-07-31T01:15:47;17.30;1.00
3614;DHT22;1821;50.936;6.854;2023-07-31T01:16:29;17.30;20.10
3614;DHT22;1821;50.936;6.854;2023-07-31T01:17:11;17.30;1.50
3614;DHT22;1821;50.936;6.854;2023-07-31T01:17:55;17.30;22.90
3614;DHT22;1821;50.936;6.854;2023-07-31T01:18:37;17.40;1.00
3614;DHT22;1821;50.936;6.854;2023-07-31T01:19:23;17.40;1.00
3614;DHT22;1821;50.936;6.854;2023-07-31T01:20:22;17.20;1.00
3614;DHT22;1821;50.936;6.854;2023-07-31T01:21:41;17.10;1.00
3614;DHT22;1821;50.936;6.854;2023-07-31T01:23:48;17.30;1.00
3614;DHT22;1821;50.936;6.854;2023-07-31T01:25:56;17.40;1.00
3614;DHT22;1821;50.936;6.854;2023-07-31T01:26:46;17.40;1.00
3614;DHT22;1821;50.936;6.854;2023-07-31T01:27:35;17.30;1.00
3614;DHT22;1821;50.936;6.854;2023-07-31T01:28:20;17.30;1.00
3614;DHT22;1821;50.936;6.854;2023-07-31T01:29:23;17.30;1.00
3614;DHT22;1821;50.936;6.854;2023-07-31T01:30:16;17.30;1.00
3614;DHT22;1821;50.936;6.854;2023-07-31T01:31:00;17.30;21.90
3614;DHT22;1821;50.936;6.854;2023-07-31T01:31:45;17.40;44.50
3614;DHT22;1821;50.936;6.854;2023-07-31T01:32:29;17.40;1.00
3614;DHT22;1821;50.936;6.854;2023-07-31T01:33:12;17.70;1.00
3614;DHT22;1821;50.936;6.854;2023-07-31T01:33:57;17.40;45.40
3614;DHT22;1821;50.936;6.854;2023-07-31T01:34:41;17.40;1.00
3614;DHT22;1821;50.936;6.854;2023-07-31T01:35:26;17.40;11.30
3614;DHT22;1821;50.936;6.854;2023-07-31T01:36:08;17.40;1.00
3614;DHT22;1821;50.936;6.854;2023-07-31T01:36:50;17.60;1.00
3614;DHT22;1821;50.936;6.854;2023-07-31T01:37:32;17.30;1.00
3614;DHT22;1821;50.936;6.854;2023-07-31T01:38:14;17.20;1.00
3614;DHT22;1821;50.936;6.854;2023-07-31T01:38:59;17.40;1.00
3614;DHT22;1821;50.936;6.854;2023-07-31T01:39:42;17.40;1.00
3614;DHT22;1821;50.936;6.854;2023-07-31T01:40:24;17.40;1.00
3614;DHT22;1821;50.936;6.854;2023-07-31T01:41:06;17.40;1.00
3614;DHT22;1821;50.936;6.854;2023-07-31T01:41:47;17.40;1.00
3614;DHT22;1821;50.936;6.854;2023-07-31T01:42:29;17.50;1.00
3614;DHT22;1821;50.936;6.854;2023-07-31T01:43:11;17.50;1.00
3614;DHT22;1821;50.936;6.854;2023-07-31T01:43:54;17.40;1.00
3614;DHT22;1821;50.936;6.854;2023-07-31T01:44:36;17.40;1.00
3614;DHT22;1821;50.936;6.854;2023-07-31T01:45:18;17.30;1.00
3614;DHT22;1821;50.936;6.854;2023-07-31T01:46:00;17.50;1.00
3614;DHT22;1821;50.936;6.854;2023-07-31T01:46:42;17.50;1.00
3614;DHT22;1821;50.936;6.854;2023-07-31T01:47:26;17.50;1.00
3614;DHT22;1821;50.936;6.854;2023-07-31T01:48:09;17.50;1.00
3614;DHT22;1821;50.936;6.854;2023-07-31T01:48:53;17.50;1.00
3614;DHT22;1821;50.936;6.854;2023-07-31T01:49:35;17.50;1.00
3614;DHT22;1821;50.936;6.854;2023-07-31T01:50:17;17.60;1.00
3614;DHT22;1821;50.936;6.854;2023-07-31T01:51:01;17.50;1.00
3614;DHT22;1821;50.936;6.854;2023-07-31T01:51:44;17.40;1.00
3614;DHT22;1821;50.936;6.854;2023-07-31T01:52:26;17.50;1.00
3614;DHT22;1821;50.936;6.854;2023-07-31T01:53:08;17.50;1.00
3614;DHT22;1821;50.936;6.854;2023-07-31T01:53:50;17.60;1.00
3614;DHT22;1821;50.936;6.854;2023-07-31T01:54:32;17.60;1.00
3614;DHT22;1821;50.936;6.854;2023-07-31T01:55:15;17.50;1.00
3614;DHT22;1821;50.936;6.854;2023-07-31T01:55:56;17.50;1.00
3614;DHT22;1821;50.936;6.854;2023-07-31T01:56:39;17.50;1.00
3614;DHT22;1821;50.936;6.854;2023-07-31T01:57:21;17.50;1.00
3614;DHT22;1821;50.936;6.854;2023-07-31T01:58:03;17.50;1.00
3614;DHT22;1821;50.936;6.854;2023-07-31T01:58:45;17.50;1.00
3614;DHT22;1821;50.936;6.854;2023-07-31T01:59:27;17.50;1.00
3614;DHT22;1821;50.936;6.854;2023-07-31T02:00:10;17.50;1.00
3614;DHT22;1821;50.936;6.854;2023-07-31T02:00:52;16.00;1.00
3614;DHT22;1821;50.936;6.854;2023-07-31T02:01:36;17.50;1.00
3614;DHT22;1821;50.936;6.854;2023-07-31T02:02:19;17.50;1.00
3614;DHT22;1821;50.936;6.854;2023-07-31T02:03:01;17.60;1.00
3614;DHT22;1821;50.936;6.854;2023-07-31T02:03:43;17.60;1.00
3614;DHT22;1821;50.936;6.854;2023-07-31T02:04:26;17.60;1.00
3614;DHT22;1821;50.936;6.854;2023-07-31T02:05:08;17.60;1.00
3614;DHT22;1821;50.936;6.854;2023-07-31T02:05:50;17.60;1.00
3614;DHT22;1821;50.936;6.854;2023-07-31T02:06:32;17.50;1.00
3614;DHT22;1821;50.936;6.854;2023-07-31T02:07:14;17.60;1.00
3614;DHT22;1821;50.936;6.854;2023-07-31T02:07:56;17.50;1.00
3614;DHT22;1821;50.936;6.854;2023-07-31T02:08:38;17.60;1.00
3614;DHT22;1821;50.936;6.854;2023-07-31T02:09:20;17.60;1.00
3614;DHT22;1821;50.936;6.854;2023-07-31T02:10:02;17.60;1.00
3614;DHT22;1821;50.936;6.854;2023-07-31T02:10:44;17.50;1.00
3614;DHT22;1821;50.936;6.854;2023-07-31T02:11:26;17.60;1.00
3614;DHT22;1821;50.936;6.854;2023-07-31T02:12:08;17.60;1.00
3614;DHT22;1821;50.936;6.854;2023-07-31T02:12:50;17.50;1.00
3614;DHT22;1821;50.936;6.854;2023-07-31T02:13:32;17.50;1.00
3614;DHT22;1821;50.936;6.854;2023-07-31T02:14:16;17.60;1.00
3614;DHT22;1821;50.936;6.854;2023-07-31T02:14:58;17.80;1.00
3614;DHT22;1821;50.936;6.854;2023-07-31T02:15:40;17.60;1.00
3614;DHT22;1821;50.936;6.854;2023-07-31T02:16:22;17.60;1.00
3614;DHT22;1821;50.936;6.854;2023-07-31T02:17:04;17.60;1.00
3614;DHT22;1821;50.936;6.854;2023-07-31T02:17:46;17.50;1.00
3614;DHT22;1821;50.936;6.854;2023-07-31T02:18:28;17.60;1.00
3614;DHT22;1821;50.936;6.854;2023-07-31T02:19:10;17.50;1.00
3614;DHT22;1821;50.936;6.854;2023-07-31T02:19:52;17.50;1.00
3614;DHT22;1821;50.936;6.854;2023-07-31T02:20:35;17.60;1.00
3614;DHT22;1821;50.936;6.854;2023-07-31T02:21:17;17.60;1.00
3614;DHT22;1821;50.936;6.854;2023-07-31T02:21:59;17.60;1.00
3614;DHT22;1821;50.936;6.854;2023-07-31T02:22:43;17.60;1.00
3614;DHT22;1821;50.936;6.854;2023-07-31T02:23:26;17.50;1.00
3614;DHT22;1821;50.936;6.854;2023-07-31T02:24:08;17.50;1.00
3614;DHT22;1821;50.936;6.854;2023-07-31T02:24:50;17.50;1.00
3614;DHT22;1821;50.936;6.854;2023-07-31T02:25:31;17.50;1.00
3614;DHT22;1821;50.936;6.854;2023-07-31T02:26:13;17.50;1.00
3614;DHT22;1821;50.936;6.854;2023-07-31T02:26:55;17.60;1.00
3614;DHT22;1821;50.936;6.854;2023-07-31T02:27:37;17.50;1.00
3614;DHT22;1821;50.936;6.854;2023-07-31T02:28:19;17.50;1.00
3614;DHT22;1821;50.936;6.854;2023-07-31T02:29:01;17.50;1.00
3614;DHT22;1821;50.936;6.854;2023-07-31T02:29:43;17.50;1.00
3614;DHT22;1821;50.936;6.854;2023-07-31T02:30:26;17.50;1.00
3614;DHT22;1821;50.936;6.854;2023-07-31T02:31:08;17.40;1.00
3614;DHT22;1821;50.936;6.854;2023-07-31T02:31:52;17.50;1.00
3614;DHT22;1821;50.936;6.854;2023-07-31T02:32:37;17.50;1.00
3614;DHT22;1821;50.936;6.854;2023-07-31T02:33:19;17.40;1.00
3614;DHT22;1821;50.936;6.854;2023-07-31T02:34:04;17.30;1.00
3614;DHT22;1821;50.936;6.854;2023-07-31T02:34:46;17.40;1.00
3614;DHT22;1821;50.936;6.854;2023-07-31T02:35:28;17.40;1.00
3614;DHT22;1821;50.936;6.854;2023-07-31T02:36:10;17.50;1.00
3614;DHT22;1821;50.936;6.854;2023-07-31T02:36:52;17.50;1.00
3614;DHT22;1821;50.936;6.854;2023-07-31T02:37:34;17.50;1.00
3614;DHT22;1821;50.936;6.854;2023-07-31T02:38:18;17.60;1.00
3614;DHT22;1821;50.936;6.854;2023-07-31T02:39:00;17.50;1.00
3614;DHT22;1821;50.936;6.854;2023-07-31T02:39:42;17.60;1.00
3614;DHT22;1821;50.936;6.854;2023-07-31T02:40:26;17.50;1.00
3614;DHT22;1821;50.936;6.854;2023-07-31T02:41:08;17.50;1.00
3614;DHT22;1821;50.936;6.854;2023-07-31T02:41:51;17.60;1.00
3614;DHT22;1821;50.936;6.854;2023-07-31T02:42:32;17.40;1.00
3614;DHT22;1821;50.936;6.854;2023-07-31T02:43:17;17.50;1.00
3614;DHT22;1821;50.936;6.854;2023-07-31T02:43:59;17.60;1.00
3614;DHT22;1821;50.936;6.854;2023-07-31T02:44:40;17.60;1.00
3614;DHT22;1821;50.936;6.854;2023-07-31T02:45:22;17.60;1.00
3614;DHT22;1821;50.936;6.854;2023-07-31T02:46:07;17.50;1.00
3614;DHT22;1821;50.936;6.854;2023-07-31T02:46:49;17.70;1.00
3614;DHT22;1821;50.936;6.854;2023-07-31T02:47:31;17.60;1.00
3614;DHT22;1821;50.936;6.854;2023-07-31T02:48:13;17.60;1.00
3614;DHT22;1821;50.936;6.854;2023-07-31T02:48:55;17.60;1.00
3614;DHT22;1821;50.936;6.854;2023-07-31T02:49:37;17.50;1.00
3614;DHT22;1821;50.936;6.854;2023-07-31T02:50:18;17.50;1.00
3614;DHT22;1821;50.936;6.854;2023-07-31T02:51:00;17.50;1.00
3614;DHT22;1821;50.936;6.854;2023-07-31T02:51:42;17.50;1.00
3614;DHT22;1821;50.936;6.854;2023-07-31T02:52:26;17.50;1.00
3614;DHT22;1821;50.936;6.854;2023-07-31T02:53:08;17.50;1.00
3614;DHT22;1821;50.936;6.854;2023-07-31T02:53:51;17.50;1.00
3614;DHT22;1821;50.936;6.854;2023-07-31T02:54:32;17.70;1.00
3614;DHT22;1821;50.936;6.854;2023-07-31T02:55:17;17.60;1.00
3614;DHT22;1821;50.936;6.854;2023-07-31T02:55:59;17.60;1.00
3614;DHT22;1821;50.936;6.854;2023-07-31T02:56:43;17.60;1.00
3614;DHT22;1821;50.936;6.854;2023-07-31T02:57:25;17.70;1.00
3614;DHT22;1821;50.936;6.854;2023-07-31T02:58:07;17.70;1.00
3614;DHT22;1821;50.936;6.854;2023-07-31T02:58:49;17.70;1.00
3614;DHT22;1821;50.936;6.854;2023-07-31T02:59:34;17.60;1.00
3614;DHT22;1821;50.936;6.854;2023-07-31T03:00:15;17.60;1.00
3614;DHT22;1821;50.936;6.854;2023-07-31T03:00:58;17.60;1.00
3614;DHT22;1821;50.936;6.854;2023-07-31T03:01:41;17.60;1.00
3614;DHT22;1821;50.936;6.854;2023-07-31T03:02:23;17.70;1.00
3614;DHT22;1821;50.936;6.854;2023-07-31T03:03:05;17.70;1.00
3614;DHT22;1821;50.936;6.854;2023-07-31T03:03:47;17.60;1.00
3614;DHT22;1821;50.936;6.854;2023-07-31T03:04:29;17.70;1.00
3614;DHT22;1821;50.936;6.854;2023-07-31T03:05:13;17.60;1.00
3614;DHT22;1821;50.936;6.854;2023-07-31T03:05:55;17.60;1.00
3614;DHT22;1821;50.936;6.854;2023-07-31T03:06:39;17.70;1.00
3614;DHT22;1821;50.936;6.854;2023-07-31T03:07:24;17.60;1.00
3614;DHT22;1821;50.936;6.854;2023-07-31T03:08:06;17.70;1.00
3614;DHT22;1821;50.936;6.854;2023-07-31T03:08:48;17.70;1.00
3614;DHT22;1821;50.936;6.854;2023-07-31T03:09:31;17.70;1.00
3614;DHT22;1821;50.936;6.854;2023-07-31T03:10:12;17.70;1.00
3614;DHT22;1821;50.936;6.854;2023-07-31T03:10:57;17.60;1.00
3614;DHT22;1821;50.936;6.854;2023-07-31T03:11:39;17.60;1.00
3614;DHT22;1821;50.936;6.854;2023-07-31T03:12:21;17.70;1.00
3614;DHT22;1821;50.936;6.854;2023-07-31T03:13:03;17.70;1.00
3614;DHT22;1821;50.936;6.854;2023-07-31T03:13:45;17.70;1.00
3614;DHT22;1821;50.936;6.854;2023-07-31T03:14:27;17.70;1.00
3614;DHT22;1821;50.936;6.854;2023-07-31T03:15:10;17.60;1.00
3614;DHT22;1821;50.936;6.854;2023-07-31T03:15:51;17.60;1.00
3614;DHT22;1821;50.936;6.854;2023-07-31T03:16:33;17.60;1.00
3614;DHT22;1821;50.936;6.854;2023-07-31T03:17:16;17.70;1.00
3614;DHT22;1821;50.936;6.854;2023-07-31T03:17:57;17.70;1.00
3614;DHT22;1821;50.936;6.854;2023-07-31T03:18:42;17.60;1.00
3614;DHT22;1821;50.936;6.854;2023-07-31T03:19:24;17.70;1.00
3614;DHT22;1821;50.936;6.854;2023-07-31T03:20:06;17.50;1.00
3614;DHT22;1821;50.936;6.854;2023-07-31T03:20:48;17.50;1.00
3614;DHT22;1821;50.936;6.854;2023-07-31T03:21:30;17.60;1.00
3614;DHT22;1821;50.936;6.854;2023-07-31T03:22:11;17.60;1.00
3614;DHT22;1821;50.936;6.854;2023-07-31T03:22:53;17.70;1.00
3614;DHT22;1821;50.936;6.854;2023-07-31T03:23:36;17.70;1.00
3614;DHT22;1821;50.936;6.854;2023-07-31T03:24:18;17.70;1.00
3614;DHT22;1821;50.936;6.854;2023-07-31T03:25:05;17.80;1.00
3614;DHT22;1821;50.936;6.854;2023-07-31T03:26:39;17.60;1.00
3614;DHT22;1821;50.936;6.854;2023-07-31T03:27:23;17.60;1.00
3614;DHT22;1821;50.936;6.854;2023-07-31T03:28:07;17.70;1.00
3614;DHT22;1821;50.936;6.854;2023-07-31T03:28:48;17.70;1.00
3614;DHT22;1821;50.936;6.854;2023-07-31T03:29:31;17.70;1.00
3614;DHT22;1821;50.936;6.854;2023-07-31T03:30:13;17.70;1.00
3614;DHT22;1821;50.936;6.854;2023-07-31T03:30:55;17.70;1.00
3614;DHT22;1821;50.936;6.854;2023-07-31T03:31:38;17.70;1.00
3614;DHT22;1821;50.936;6.854;2023-07-31T03:32:22;17.80;1.00
3614;DHT22;1821;50.936;6.854;2023-07-31T03:33:04;17.80;1.00
3614;DHT22;1821;50.936;6.854;2023-07-31T03:33:49;17.80;1.00
3614;DHT22;1821;50.936;6.854;2023-07-31T03:34:34;17.80;1.00
3614;DHT22;1821;50.936;6.854;2023-07-31T03:35:16;17.80;1.00
3614;DHT22;1821;50.936;6.854;2023-07-31T03:35:58;17.70;1.00
3614;DHT22;1821;50.936;6.854;2023-07-31T03:36:42;17.70;1.00
3614;DHT22;1821;50.936;6.854;2023-07-31T03:37:24;17.80;1.00
3614;DHT22;1821;50.936;6.854;2023-07-31T03:38:06;17.70;1.00
3614;DHT22;1821;50.936;6.854;2023-07-31T03:38:49;17.70;1.00
3614;DHT22;1821;50.936;6.854;2023-07-31T03:39:31;17.70;1.00
3614;DHT22;1821;50.936;6.854;2023-07-31T03:40:13;17.70;1.00
3614;DHT22;1821;50.936;6.854;2023-07-31T03:40:57;17.70;1.00
3614;DHT22;1821;50.936;6.854;2023-07-31T03:41:40;17.60;1.00
3614;DHT22;1821;50.936;6.854;2023-07-31T03:42:22;18.00;1.00
3614;DHT22;1821;50.936;6.854;2023-07-31T03:43:05;17.70;1.00
3614;DHT22;1821;50.936;6.854;2023-07-31T03:43:50;17.70;1.00
3614;DHT22;1821;50.936;6.854;2023-07-31T03:44:37;17.60;1.00
3614;DHT22;1821;50.936;6.854;2023-07-31T03:45:19;17.60;1.00
3614;DHT22;1821;50.936;6.854;2023-07-31T03:46:01;17.60;1.00
3614;DHT22;1821;50.936;6.854;2023-07-31T03:46:44;17.50;1.00
3614;DHT22;1821;50.936;6.854;2023-07-31T03:47:26;17.60;1.00
3614;DHT22;1821;50.936;6.854;2023-07-31T03:48:08;17.50;1.00
3614;DHT22;1821;50.936;6.854;2023-07-31T03:48:51;17.60;1.00
3614;DHT22;1821;50.936;6.854;2023-07-31T03:49:33;17.60;1.00
3614;DHT22;1821;50.936;6.854;2023-07-31T03:50:17;17.60;1.00
3614;DHT22;1821;50.936;6.854;2023-07-31T03:50:59;17.60;1.00
3614;DHT22;1821;50.936;6.854;2023-07-31T03:51:41;17.60;1.00
3614;DHT22;1821;50.936;6.854;2023-07-31T03:52:23;17.70;1.00
3614;DHT22;1821;50.936;6.854;2023-07-31T03:53:05;17.60;1.00
3614;DHT22;1821;50.936;6.854;2023-07-31T03:53:47;17.80;1.00
3614;DHT22;1821;50.936;6.854;2023-07-31T03:54:29;17.70;1.00
3614;DHT22;1821;50.936;6.854;2023-07-31T03:55:11;17.50;1.00
3614;DHT22;1821;50.936;6.854;2023-07-31T03:55:53;18.00;1.00
3614;DHT22;1821;50.936;6.854;2023-07-31T03:56:37;17.60;1.00
3614;DHT22;1821;50.936;6.854;2023-07-31T03:57:20;17.60;1.00
3614;DHT22;1821;50.936;6.854;2023-07-31T03:58:05;17.60;1.00
3614;DHT22;1821;50.936;6.854;2023-07-31T03:58:47;17.60;1.00
3614;DHT22;1821;50.936;6.854;2023-07-31T03:59:29;17.60;1.00
3614;DHT22;1821;50.936;6.854;2023-07-31T04:00:11;17.60;1.00
3614;DHT22;1821;50.936;6.854;2023-07-31T04:00:53;17.60;1.00
3614;DHT22;1821;50.936;6.854;2023-07-31T04:01:35;17.60;1.00
3614;DHT22;1821;50.936;6.854;2023-07-31T04:02:17;17.60;1.00
3614;DHT22;1821;50.936;6.854;2023-07-31T04:03:00;17.60;1.00
3614;DHT22;1821;50.936;6.854;2023-07-31T04:03:42;17.50;1.00
3614;DHT22;1821;50.936;6.854;2023-07-31T04:04:24;17.60;1.00
3614;DHT22;1821;50.936;6.854;2023-07-31T04:05:07;17.50;1.00
3614;DHT22;1821;50.936;6.854;2023-07-31T04:05:49;17.50;1.00
3614;DHT22;1821;50.936;6.854;2023-07-31T04:06:31;17.50;1.00
3614;DHT22;1821;50.936;6.854;2023-07-31T04:07:13;17.40;1.00
3614;DHT22;1821;50.936;6.854;2023-07-31T04:07:55;17.50;1.00
3614;DHT22;1821;50.936;6.854;2023-07-31T04:08:37;17.50;1.00
3614;DHT22;1821;50.936;6.854;2023-07-31T04:09:19;17.50;1.00
3614;DHT22;1821;50.936;6.854;2023-07-31T04:10:01;17.40;1.00
3614;DHT22;1821;50.936;6.854;2023-07-31T04:10:43;17.40;1.00
3614;DHT22;1821;50.936;6.854;2023-07-31T04:11:25;17.40;1.00
3614;DHT22;1821;50.936;6.854;2023-07-31T04:12:09;17.40;1.00
3614;DHT22;1821;50.936;6.854;2023-07-31T04:12:51;17.40;1.00
3614;DHT22;1821;50.936;6.854;2023-07-31T04:13:33;17.40;1.00
3614;DHT22;1821;50.936;6.854;2023-07-31T04:14:15;17.30;1.00
3614;DHT22;1821;50.936;6.854;2023-07-31T04:14:57;17.40;1.00
3614;DHT22;1821;50.936;6.854;2023-07-31T04:15:39;17.50;1.00
3614;DHT22;1821;50.936;6.854;2023-07-31T04:16:21;17.40;1.00
3614;DHT22;1821;50.936;6.854;2023-07-31T04:17:03;17.40;1.00
3614;DHT22;1821;50.936;6.854;2023-07-31T04:17:47;17.50;1.00
3614;DHT22;1821;50.936;6.854;2023-07-31T04:18:30;17.50;1.00
3614;DHT22;1821;50.936;6.854;2023-07-31T04:19:12;17.60;1.00
3614;DHT22;1821;50.936;6.854;2023-07-31T04:19:58;17.50;1.00
3614;DHT22;1821;50.936;6.854;2023-07-31T04:20:40;17.50;14.90
3614;DHT22;1821;50.936;6.854;2023-07-31T04:21:22;17.50;1.00
3614;DHT22;1821;50.936;6.854;2023-07-31T04:22:04;17.50;18.20
3614;DHT22;1821;50.936;6.854;2023-07-31T04:22:46;17.50;20.70
3614;DHT22;1821;50.936;6.854;2023-07-31T04:23:28;17.60;1.00
3614;DHT22;1821;50.936;6.854;2023-07-31T04:24:10;17.40;1.00
3614;DHT22;1821;50.936;6.854;2023-07-31T04:24:52;17.40;1.00
3614;DHT22;1821;50.936;6.854;2023-07-31T04:25:36;17.50;1.00
3614;DHT22;1821;50.936;6.854;2023-07-31T04:26:19;17.30;1.00
3614;DHT22;1821;50.936;6.854;2023-07-31T04:27:03;17.60;1.00
3614;DHT22;1821;50.936;6.854;2023-07-31T04:27:45;17.50;6.10
3614;DHT22;1821;50.936;6.854;2023-07-31T04:28:27;17.60;4.30
3614;DHT22;1821;50.936;6.854;2023-07-31T04:29:09;17.50;1.00
3614;DHT22;1821;50.936;6.854;2023-07-31T04:29:51;17.60;1.00
3614;DHT22;1821;50.936;6.854;2023-07-31T04:30:33;17.50;1.00
3614;DHT22;1821;50.936;6.854;2023-07-31T04:31:15;17.60;1.00
3614;DHT22;1821;50.936;6.854;2023-07-31T04:31:58;17.50;1.00
3614;DHT22;1821;50.936;6.854;2023-07-31T04:32:39;17.60;1.00
3614;DHT22;1821;50.936;6.854;2023-07-31T04:33:21;17.60;1.00
3614;DHT22;1821;50.936;6.854;2023-07-31T04:34:04;17.20;1.00
3614;DHT22;1821;50.936;6.854;2023-07-31T04:34:46;17.50;1.00
3614;DHT22;1821;50.936;6.854;2023-07-31T04:35:29;17.60;1.00
3614;DHT22;1821;50.936;6.854;2023-07-31T04:36:13;17.60;1.00
3614;DHT22;1821;50.936;6.854;2023-07-31T04:36:55;17.60;1.00
3614;DHT22;1821;50.936;6.854;2023-07-31T04:37:37;17.50;1.00
3614;DHT22;1821;50.936;6.854;2023-07-31T04:38:21;17.50;1.00
3614;DHT22;1821;50.936;6.854;2023-07-31T04:39:03;17.60;1.00
3614;DHT22;1821;50.936;6.854;2023-07-31T04:39:46;17.50;1.00
3614;DHT22;1821;50.936;6.854;2023-07-31T04:40:28;17.60;1.00
3614;DHT22;1821;50.936;6.854;2023-07-31T04:41:09;17.70;1.00
3614;DHT22;1821;50.936;6.854;2023-07-31T04:41:51;17.70;1.00
3614;DHT22;1821;50.936;6.854;2023-07-31T04:42:33;17.70;1.00
3614;DHT22;1821;50.936;6.854;2023-07-31T04:43:16;17.70;1.00
3614;DHT22;1821;50.936;6.854;2023-07-31T04:43:58;17.60;1.00
3614;DHT22;1821;50.936;6.854;2023-07-31T04:44:42;18.00;1.00
3614;DHT22;1821;50.936;6.854;2023-07-31T04:45:24;17.70;1.00
3614;DHT22;1821;50.936;6.854;2023-07-31T04:46:09;17.70;1.00
3614;DHT22;1821;50.936;6.854;2023-07-31T04:46:51;17.70;1.00
3614;DHT22;1821;50.936;6.854;2023-07-31T04:47:33;17.80;1.00
3614;DHT22;1821;50.936;6.854;2023-07-31T04:48:15;17.80;1.00
3614;DHT22;1821;50.936;6.854;2023-07-31T04:48:57;17.80;1.00
3614;DHT22;1821;50.936;6.854;2023-07-31T04:49:39;17.80;1.00
3614;DHT22;1821;50.936;6.854;2023-07-31T04:50:23;17.80;1.00
3614;DHT22;1821;50.936;6.854;2023-07-31T04:51:06;17.90;1.00